Time;durP1;ratioP1;P1;durP2;ratioP2;P2;SDS_P1;SDS_P2;PMS_P1;PMS_P2;Temp;Humidity;BMP_temperature;BMP_pressure;BME280_temperature;BME280_humidity;BME280_pressure;Samples;Min_cycle;Max_cycle;Signal;HPM_P1;HPM_P2
2021/06/27 00:01:25;;;;;;;21.03;14.67;;;18.40;99.90;;;;;;5030406;28;20844;-50
2021/06/27 00:03:52;;;;;;;21.73;14.77;;;18.40;99.90;;;;;;5029931;28;20391;-50
2021/06/27 00:06:19;;;;;;;21.25;14.57;;;18.40;99.90;;;;;;5029216;28;20505;-50
2021/06/27 00:08:45;;;;;;;22.15;15.40;;;18.40;99.90;;;;;;5029641;28;20429;-50
2021/06/27 00:11:12;;;;;;;22.98;14.73;;;18.40;99.90;;;;;;5030549;28;20367;-50
2021/06/27 00:13:39;;;;;;;21.73;14.50;;;18.40;99.90;;;;;;5029230;28;20379;-50
2021/06/27 00:16:07;;;;;;;22.58;14.60;;;18.30;99.90;;;;;;5029854;28;20417;-50
2021/06/27 00:18:33;;;;;;;20.48;14.77;;;18.10;99.90;;;;;;5029431;28;20405;-50
2021/06/27 00:21:12;;;;;;;21.13;14.30;;;17.90;99.90;;;;;;5029647;28;20879;-50
2021/06/27 00:23:44;;;;;;;19.23;13.77;;;17.80;99.90;;;;;;5029250;28;20831;-50
2021/06/27 00:26:12;;;;;;;22.23;14.35;;;17.80;99.90;;;;;;5029865;28;20458;-50
2021/06/27 00:28:38;;;;;;;20.50;13.93;;;17.80;99.90;;;;;;5029224;28;20417;-50
2021/06/27 00:31:04;;;;;;;19.50;13.57;;;17.70;99.90;;;;;;5030020;28;20406;-50
2021/06/27 00:33:30;;;;;;;23.77;14.95;;;17.70;99.90;;;;;;5028819;28;20421;-50
2021/06/27 00:35:56;;;;;;;26.08;16.48;;;17.70;99.90;;;;;;5029801;28;20434;-50
2021/06/27 00:38:24;;;;;;;21.47;14.63;;;17.60;99.90;;;;;;5029644;28;20436;-50
2021/06/27 00:40:49;;;;;;;22.48;15.25;;;17.70;99.90;;;;;;5029074;28;20436;-50
2021/06/27 00:43:15;;;;;;;27.48;14.43;;;17.70;99.90;;;;;;5029861;28;20493;-52
2021/06/27 00:45:41;;;;;;;23.77;14.88;;;17.60;99.90;;;;;;5029388;28;20733;-50
2021/06/27 00:48:08;;;;;;;24.10;15.13;;;17.40;99.90;;;;;;5029830;28;20529;-50
2021/06/27 00:50:48;;;;;;;20.92;14.35;;;17.40;99.90;;;;;;5028953;28;20732;-50
2021/06/27 00:53:14;;;;;;;25.60;15.77;;;17.40;99.90;;;;;;5029383;28;20391;-50
2021/06/27 00:55:41;;;;;;;21.67;15.77;;;17.30;99.90;;;;;;5028447;28;20387;-50
2021/06/27 00:58:07;;;;;;;25.05;16.20;;;17.40;99.90;;;;;;5029422;28;20379;-52
2021/06/27 01:00:36;;;;;;;24.17;16.15;;;17.40;99.90;;;;;;5028425;28;20434;-50
2021/06/27 01:03:02;;;;;;;22.75;15.77;;;17.30;99.90;;;;;;5029271;28;20431;-50
2021/06/27 01:05:31;;;;;;;25.87;15.50;;;17.40;99.90;;;;;;5029138;28;20403;-50
2021/06/27 01:07:57;;;;;;;24.42;16.88;;;17.40;99.90;;;;;;5029549;28;20883;-50
2021/06/27 01:10:23;;;;;;;25.02;16.50;;;17.40;99.90;;;;;;5029375;28;20419;-50
2021/06/27 01:12:50;;;;;;;27.02;17.20;;;17.30;99.90;;;;;;5028486;28;20976;-50
2021/06/27 01:15:17;;;;;;;26.65;17.52;;;17.20;99.90;;;;;;5029299;28;20862;-50
2021/06/27 01:17:46;;;;;;;24.63;16.50;;;17.30;99.90;;;;;;5028251;28;20387;-50
2021/06/27 01:20:18;;;;;;;25.53;16.30;;;17.30;99.90;;;;;;5032060;28;20838;-51
2021/06/27 01:22:44;;;;;;;24.67;17.33;;;17.30;99.90;;;;;;5032494;28;20419;-50
2021/06/27 01:25:11;;;;;;;24.17;17.67;;;17.30;99.90;;;;;;5033071;28;20383;-50
2021/06/27 01:27:37;;;;;;;23.58;16.20;;;17.20;99.90;;;;;;5031963;28;20474;-50
2021/06/27 01:30:08;;;;;;;25.13;17.02;;;17.20;99.90;;;;;;5033327;28;20405;-50
2021/06/27 01:32:34;;;;;;;24.60;16.08;;;17.20;99.90;;;;;;5032377;28;20383;-50
2021/06/27 01:35:02;;;;;;;27.03;17.27;;;17.20;99.90;;;;;;5032675;28;20404;-50
2021/06/27 01:37:28;;;;;;;24.02;16.08;;;17.30;99.90;;;;;;5032564;28;20379;-51
2021/06/27 01:39:53;;;;;;;24.33;15.67;;;17.20;99.90;;;;;;5030685;28;20464;-47
2021/06/27 01:42:23;;;;;;;24.17;15.70;;;17.10;99.90;;;;;;5032761;28;20871;-50
2021/06/27 01:44:48;;;;;;;23.25;15.10;;;16.90;99.90;;;;;;5032339;28;20386;-50
2021/06/27 01:47:14;;;;;;;22.83;16.40;;;16.90;99.90;;;;;;5033094;28;20375;-50
2021/06/27 01:49:42;;;;;;;23.17;16.00;;;16.80;99.90;;;;;;5032012;28;20454;-50
2021/06/27 01:52:08;;;;;;;26.05;16.25;;;16.80;99.90;;;;;;5032396;28;20873;-50
2021/06/27 01:54:38;;;;;;;23.00;15.40;;;16.70;99.90;;;;;;5032348;28;20458;-50
2021/06/27 01:57:04;;;;;;;25.25;16.08;;;16.70;99.90;;;;;;5032094;28;20930;-50
2021/06/27 01:59:30;;;;;;;25.20;16.98;;;16.70;99.90;;;;;;5031857;28;20449;-53
2021/06/27 02:02:02;;;;;;;25.77;17.10;;;16.70;99.90;;;;;;5031542;28;20415;-50
2021/06/27 02:04:27;;;;;;;24.48;16.30;;;16.80;99.90;;;;;;5032149;28;20927;-50
2021/06/27 02:06:53;;;;;;;28.17;16.63;;;16.80;99.90;;;;;;5031014;28;20399;-50
2021/06/27 02:09:22;;;;;;;26.20;17.25;;;16.80;99.90;;;;;;5032268;28;20423;-51
2021/06/27 02:11:47;;;;;;;24.95;17.33;;;16.70;99.90;;;;;;5031131;28;20392;-50
2021/06/27 02:14:13;;;;;;;22.60;15.40;;;16.70;99.90;;;;;;5031436;28;20883;-50
2021/06/27 02:16:39;;;;;;;22.93;15.20;;;16.70;99.90;;;;;;5031128;28;20379;-50
2021/06/27 02:19:05;;;;;;;25.50;16.40;;;16.80;99.90;;;;;;5032206;28;20379;-50
2021/06/27 02:21:34;;;;;;;24.45;15.80;;;18.50;99.90;;;;;;5031713;28;20417;-52
2021/06/27 02:24:02;;;;;;;25.15;16.35;;;16.70;99.90;;;;;;5032061;28;20426;-50
2021/06/27 02:26:28;;;;;;;25.45;17.77;;;16.60;99.90;;;;;;5031408;28;20787;-50
2021/06/27 02:28:57;;;;;;;27.65;18.08;;;16.60;99.90;;;;;;5031054;28;20407;-50
2021/06/27 02:31:23;;;;;;;26.73;17.15;;;16.60;99.90;;;;;;5031229;28;20387;-50
2021/06/27 02:33:49;;;;;;;28.50;18.63;;;16.60;99.90;;;;;;5030713;28;20383;-50
2021/06/27 02:36:15;;;;;;;28.17;17.75;;;16.50;99.90;;;;;;5031377;28;20920;-50
2021/06/27 02:38:41;;;;;;;26.35;16.85;;;16.50;99.90;;;;;;5031444;28;20405;-51
2021/06/27 02:41:08;;;;;;;24.70;17.57;;;16.60;99.90;;;;;;5031782;28;20433;-50
2021/06/27 02:43:33;;;;;;;26.55;18.02;;;16.60;99.90;;;;;;5030671;28;20445;-52
2021/06/27 02:45:59;;;;;;;25.67;17.80;;;16.80;99.90;;;;;;5031166;28;20948;-50
2021/06/27 02:48:26;;;;;;;28.52;19.50;;;16.80;99.90;;;;;;5031213;28;20434;-50
2021/06/27 02:50:51;;;;;;;26.08;17.40;;;16.80;99.90;;;;;;5030240;28;20993;-50
2021/06/27 02:53:17;;;;;;;26.30;17.80;;;16.80;99.90;;;;;;5031373;28;20391;-50
2021/06/27 02:55:43;;;;;;;29.80;19.08;;;16.80;99.90;;;;;;5029963;28;20929;-50
2021/06/27 02:58:08;;;;;;;29.00;19.52;;;16.80;99.90;;;;;;5031365;28;20414;-50
2021/06/27 03:00:34;;;;;;;25.93;19.30;;;16.90;99.90;;;;;;5030631;28;20474;-49
2021/06/27 03:03:00;;;;;;;26.40;17.58;;;16.90;99.90;;;;;;5030934;28;20442;-50
2021/06/27 03:05:26;;;;;;;29.52;18.98;;;16.70;99.90;;;;;;5030465;28;20803;-50
2021/06/27 03:07:52;;;;;;;25.98;16.88;;;16.70;99.90;;;;;;5030916;28;20388;-50
2021/06/27 03:10:19;;;;;;;24.23;17.10;;;16.60;99.90;;;;;;5030402;28;20478;-50
2021/06/27 03:12:47;;;;;;;24.48;16.75;;;16.70;99.90;;;;;;5030054;28;20849;-50
2021/06/27 03:15:15;;;;;;;24.15;16.80;;;16.60;99.90;;;;;;5030764;28;20398;-50
2021/06/27 03:17:41;;;;;;;26.40;17.05;;;16.60;99.90;;;;;;5028648;28;20442;-50
2021/06/27 03:20:09;;;;;;;27.52;17.60;;;16.60;99.90;;;;;;5030303;28;20415;-50
2021/06/27 03:22:35;;;;;;;25.17;17.58;;;16.60;99.90;;;;;;5030006;28;20907;-53
2021/06/27 03:25:01;;;;;;;24.48;17.98;;;16.70;99.90;;;;;;5030117;28;20719;-50
2021/06/27 03:27:27;;;;;;;24.13;17.30;;;16.80;99.90;;;;;;5029953;28;20449;-50
2021/06/27 03:29:53;;;;;;;26.00;17.58;;;16.80;99.90;;;;;;5029673;28;20422;-50
2021/06/27 03:32:19;;;;;;;23.70;17.75;;;16.80;99.90;;;;;;5029980;28;20462;-49
2021/06/27 03:34:44;;;;;;;24.13;18.10;;;16.80;99.90;;;;;;5029695;28;20935;-50
2021/06/27 03:37:10;;;;;;;23.92;16.42;;;16.90;99.90;;;;;;5030380;28;20477;-50
2021/06/27 03:39:36;;;;;;;23.50;16.93;;;17.00;99.90;;;;;;5029603;28;20390;-53
2021/06/27 03:42:02;;;;;;;23.30;16.40;;;17.10;99.90;;;;;;5029538;28;20444;-49
2021/06/27 03:44:28;;;;;;;23.93;16.13;;;17.20;99.90;;;;;;5029314;28;20798;-50
2021/06/27 03:46:54;;;;;;;22.10;16.00;;;17.20;99.90;;;;;;5029495;28;20374;-50
2021/06/27 03:49:20;;;;;;;21.83;16.13;;;17.20;99.90;;;;;;5029983;28;20478;-50
2021/06/27 03:51:47;;;;;;;22.90;16.35;;;17.30;99.90;;;;;;5029527;28;20938;-50
2021/06/27 03:54:14;;;;;;;23.48;16.25;;;17.40;99.90;;;;;;5029938;28;20438;-50
2021/06/27 03:56:39;;;;;;;23.10;17.40;;;17.20;99.90;;;;;;5029187;28;20386;-50
2021/06/27 03:59:05;;;;;;;24.35;17.10;;;17.20;99.90;;;;;;5029407;28;20379;-50
2021/06/27 04:01:31;;;;;;;22.30;16.00;;;17.20;99.90;;;;;;5029219;28;20441;-50
2021/06/27 04:03:57;;;;;;;21.33;15.20;;;17.10;99.90;;;;;;5029510;28;20426;-50
2021/06/27 04:06:23;;;;;;;24.40;16.70;;;17.10;99.90;;;;;;5029598;28;20454;-50
2021/06/27 04:08:49;;;;;;;25.02;15.45;;;17.10;99.90;;;;;;5027802;28;20900;-50
2021/06/27 04:11:15;;;;;;;25.47;16.80;;;17.20;99.90;;;;;;5029578;28;20896;-50
2021/06/27 04:13:40;;;;;;;26.15;15.90;;;17.30;99.90;;;;;;5029246;28;20383;-50
2021/06/27 04:16:06;;;;;;;21.60;15.10;;;17.40;99.90;;;;;;5029424;28;20433;-50
2021/06/27 04:18:34;;;;;;;21.60;15.43;;;17.50;99.90;;;;;;5030003;28;20381;-50
2021/06/27 04:21:00;;;;;;;21.38;15.80;;;17.50;99.90;;;;;;5029389;28;20392;-50
2021/06/27 04:23:34;;;;;;;25.30;16.53;;;17.50;99.90;;;;;;5030182;28;20484;-50
2021/06/27 04:25:59;;;;;;;25.65;17.10;;;17.40;99.90;;;;;;5029955;28;20391;-50
2021/06/27 04:28:26;;;;;;;26.50;17.40;;;17.50;99.90;;;;;;5029258;28;20395;-50
2021/06/27 04:30:52;;;;;;;26.70;17.08;;;17.50;99.90;;;;;;5028628;28;20431;-51
2021/06/27 04:33:17;;;;;;;25.52;17.23;;;17.60;99.90;;;;;;5029551;28;20456;-50
2021/06/27 04:35:43;;;;;;;25.63;17.40;;;17.70;99.90;;;;;;5029495;28;20478;-51
2021/06/27 04:38:13;;;;;;;24.65;17.25;;;17.80;99.90;;;;;;5029713;28;20410;-50
2021/06/27 04:40:39;;;;;;;24.67;16.60;;;18.00;99.90;;;;;;5028697;28;20387;-50
2021/06/27 04:43:06;;;;;;;25.05;17.30;;;18.10;99.90;;;;;;5029476;28;20752;-50
2021/06/27 04:45:32;;;;;;;24.73;16.65;;;18.20;99.90;;;;;;5029513;28;20452;-50
2021/06/27 04:47:58;;;;;;;25.02;16.65;;;18.30;99.90;;;;;;5029070;28;20387;-50
2021/06/27 04:50:24;;;;;;;22.77;15.95;;;18.40;99.90;;;;;;5029607;28;20408;-50
2021/06/27 04:52:53;;;;;;;25.10;16.47;;;18.50;99.90;;;;;;5029727;28;20383;-50
2021/06/27 04:55:21;;;;;;;24.30;16.27;;;18.70;99.90;;;;;;5033363;28;20379;-50
2021/06/27 04:57:47;;;;;;;23.23;16.00;;;18.80;99.90;;;;;;5032731;28;20387;-50
2021/06/27 05:00:14;;;;;;;24.63;16.77;;;18.90;99.90;;;;;;5032831;28;20401;-50
2021/06/27 05:02:40;;;;;;;25.60;15.98;;;19.00;99.90;;;;;;5032012;28;20415;-50
2021/06/27 05:05:06;;;;;;;21.80;16.42;;;19.20;99.90;;;;;;5032559;28;20857;-50
2021/06/27 05:07:33;;;;;;;23.00;16.48;;;19.20;99.90;;;;;;5033592;28;20494;-50
2021/06/27 05:09:58;;;;;;;21.80;16.60;;;19.50;99.90;;;;;;5032253;28;20363;-50
2021/06/27 05:12:25;;;;;;;20.10;15.47;;;19.70;99.90;;;;;;5032921;28;20462;-50
2021/06/27 05:14:51;;;;;;;20.15;14.93;;;19.80;99.90;;;;;;5032024;28;20752;-50
2021/06/27 05:17:16;;;;;;;21.63;15.25;;;19.90;99.90;;;;;;5032929;28;20928;-50
2021/06/27 05:19:42;;;;;;;19.88;14.10;;;20.00;99.90;;;;;;5031923;28;20521;-50
2021/06/27 05:22:07;;;;;;;20.60;14.43;;;20.30;99.90;;;;;;5032933;28;20450;-50
2021/06/27 05:24:33;;;;;;;22.17;13.80;;;21.00;99.90;;;;;;5032683;28;20861;-50
2021/06/27 05:26:59;;;;;;;19.65;14.00;;;21.60;99.90;;;;;;5031530;28;20741;-50
2021/06/27 05:29:25;;;;;;;18.35;13.48;;;22.40;99.90;;;;;;5032725;28;20379;-50
2021/06/27 05:31:50;;;;;;;19.40;13.67;;;23.60;99.90;;;;;;5032227;28;20390;-50
2021/06/27 05:34:16;;;;;;;19.07;13.47;;;24.20;99.90;;;;;;5031923;28;20402;-52
2021/06/27 05:36:42;;;;;;;18.33;12.03;;;24.10;99.90;;;;;;5031914;28;20396;-50
2021/06/27 05:39:09;;;;;;;18.70;12.70;;;23.60;99.90;;;;;;5032622;28;20387;-51
2021/06/27 05:41:35;;;;;;;19.30;13.20;;;23.30;99.90;;;;;;5032345;28;20421;-52
2021/06/27 05:44:05;;;;;;;17.70;13.05;;;22.90;99.90;;;;;;5032114;28;20375;-50
2021/06/27 05:46:31;;;;;;;18.90;13.30;;;22.80;99.90;;;;;;5032310;28;20375;-50
2021/06/27 05:48:57;;;;;;;17.60;12.18;;;22.80;99.90;;;;;;5031722;28;20833;-50
2021/06/27 05:51:23;;;;;;;17.90;11.68;;;23.50;99.90;;;;;;5025501;28;20403;-51
2021/06/27 05:53:48;;;;;;;14.07;10.43;;;24.20;99.90;;;;;;5031254;28;20384;-50
2021/06/27 05:56:17;;;;;;;16.83;11.27;;;24.60;99.90;;;;;;5031928;28;20387;-50
2021/06/27 05:58:43;;;;;;;16.38;11.70;;;24.60;99.90;;;;;;5031052;28;20383;-50
2021/06/27 06:01:12;;;;;;;14.32;10.60;;;24.60;99.90;;;;;;5031631;28;20379;-50
2021/06/27 06:03:38;;;;;;;13.32;9.63;;;25.00;99.90;;;;;;5031044;28;20390;-53
2021/06/27 06:06:05;;;;;;;13.55;8.90;;;25.20;99.90;;;;;;5030515;28;20414;-51
2021/06/27 06:08:32;;;;;;;13.65;9.40;;;25.40;99.90;;;;;;5031570;28;20881;-51
2021/06/27 06:10:57;;;;;;;15.45;9.07;;;25.90;99.90;;;;;;5029925;28;20968;-48
2021/06/27 06:13:23;;;;;;;12.17;8.60;;;26.40;99.90;;;;;;5031585;28;20437;-48
2021/06/27 06:15:49;;;;;;;12.43;8.90;;;26.80;99.90;;;;;;5030746;28;20382;-49
2021/06/27 06:18:15;;;;;;;13.17;9.40;;;26.30;99.90;;;;;;5031538;28;20383;-49
2021/06/27 06:20:40;;;;;;;13.23;9.17;;;26.40;99.90;;;;;;5030459;28;20379;-50
2021/06/27 06:23:06;;;;;;;12.50;8.38;;;26.80;99.90;;;;;;5030475;28;20509;-50
2021/06/27 06:25:32;;;;;;;12.05;8.43;;;27.50;99.90;;;;;;5031196;28;20383;-50
2021/06/27 06:27:58;;;;;;;11.45;7.80;;;27.80;99.90;;;;;;5029535;28;20938;-49
2021/06/27 06:30:24;;;;;;;11.77;8.57;;;27.60;99.90;;;;;;5031146;28;20379;-50
2021/06/27 06:32:49;;;;;;;11.55;8.10;;;27.20;99.90;;;;;;5030163;28;20406;-49
2021/06/27 06:35:15;;;;;;;10.73;8.50;;;27.30;99.90;;;;;;5031419;28;20395;-50
2021/06/27 06:37:41;;;;;;;13.27;8.70;;;27.30;99.90;;;;;;5030194;28;20399;-49
2021/06/27 06:40:08;;;;;;;11.32;8.70;;;27.00;99.90;;;;;;5030840;28;20387;-49
2021/06/27 06:42:34;;;;;;;11.63;8.52;;;26.40;99.90;;;;;;5030978;28;20498;-50
2021/06/27 06:45:00;;;;;;;12.15;8.30;;;26.30;99.90;;;;;;5030208;28;20845;-50
2021/06/27 06:47:25;;;;;;;10.90;7.83;;;27.50;99.90;;;;;;5030791;28;20804;-50
2021/06/27 06:49:51;;;;;;;11.30;8.30;;;29.20;99.90;;;;;;5029733;28;20387;-50
2021/06/27 06:52:17;;;;;;;10.77;8.07;;;29.70;99.40;;;;;;5030398;28;20839;-50
2021/06/27 06:54:43;;;;;;;10.95;8.40;;;29.60;98.80;;;;;;5029821;28;20425;-57
2021/06/27 06:57:09;;;;;;;11.90;7.70;;;30.40;97.00;;;;;;5030692;28;20391;-51
2021/06/27 06:59:35;;;;;;;11.17;8.43;;;31.30;94.60;;;;;;5030672;28;20375;-50
2021/06/27 07:02:00;;;;;;;10.77;7.63;;;31.30;93.10;;;;;;5030055;28;20415;-51
2021/06/27 07:04:26;;;;;;;10.65;7.15;;;30.90;93.00;;;;;;5030515;28;20880;-50
2021/06/27 07:06:52;;;;;;;8.93;6.22;;;30.70;93.10;;;;;;5029399;28;20418;-50
2021/06/27 07:09:18;;;;;;;10.02;6.90;;;30.50;94.30;;;;;;5030343;28;20387;-49
2021/06/27 07:11:44;;;;;;;10.73;7.30;;;30.50;94.50;;;;;;5029573;28;20421;-50
2021/06/27 07:14:10;;;;;;;10.40;7.50;;;30.60;93.70;;;;;;5030114;28;20375;-50
2021/06/27 07:16:36;;;;;;;10.90;8.13;;;31.20;92.00;;;;;;5030036;28;20391;-52
2021/06/27 07:19:03;;;;;;;8.65;6.10;;;31.70;90.60;;;;;;5029820;28;20979;-50
2021/06/27 07:21:29;;;;;;;10.73;8.00;;;32.10;90.70;;;;;;5029833;28;20386;-50
2021/06/27 07:23:56;;;;;;;10.00;7.00;;;32.90;87.70;;;;;;5028876;28;20769;-50
2021/06/27 07:26:23;;;;;;;10.30;6.82;;;33.80;84.00;;;;;;5029914;28;20371;-50
2021/06/27 07:28:48;;;;;;;9.02;6.13;;;34.50;78.70;;;;;;5029303;28;20383;-50
2021/06/27 07:31:14;;;;;;;9.60;6.80;;;34.70;75.50;;;;;;5029886;28;20390;-50
2021/06/27 07:33:40;;;;;;;9.87;6.40;;;34.40;76.00;;;;;;5029576;28;20379;-50
2021/06/27 07:36:06;;;;;;;10.20;6.45;;;35.40;74.90;;;;;;5029977;28;20876;-50
2021/06/27 07:38:32;;;;;;;10.13;6.60;;;35.40;70.30;;;;;;5030006;28;20376;-50
2021/06/27 07:40:58;;;;;;;9.55;8.55;;;34.40;70.80;;;;;;5029101;28;20487;-50
2021/06/27 07:43:24;;;;;;;10.45;9.07;;;32.70;75.70;;;;;;5029831;28;20407;-50
2021/06/27 07:45:49;;;;;;;9.17;7.63;;;32.40;78.10;;;;;;5028707;28;20390;-50
2021/06/27 07:48:15;;;;;;;9.90;8.27;;;32.80;76.70;;;;;;5030163;28;20385;-50
2021/06/27 07:50:41;;;;;;;9.30;8.30;;;33.60;76.80;;;;;;5029540;28;20379;-50
2021/06/27 07:53:07;;;;;;;9.40;5.30;;;34.50;72.70;;;;;;5029745;28;20419;-50
2021/06/27 07:55:33;;;;;;;9.30;5.97;;;34.90;71.20;;;;;;5029433;28;20386;-50
2021/06/27 07:57:59;;;;;;;8.27;5.88;;;35.40;67.90;;;;;;5028046;28;20465;-51
2021/06/27 08:00:25;;;;;;;11.40;6.00;;;35.70;65.60;;;;;;5029698;28;20853;-51
2021/06/27 08:02:51;;;;;;;8.60;5.20;;;36.40;64.10;;;;;;5028881;28;20407;-50
2021/06/27 08:05:17;;;;;;;9.57;6.45;;;36.80;61.00;;;;;;5029371;28;20461;-50
2021/06/27 08:07:43;;;;;;;9.27;6.28;;;36.40;61.70;;;;;;5029144;28;20470;-51
2021/06/27 08:10:09;;;;;;;7.95;5.40;;;36.10;61.70;;;;;;5029789;28;20478;-51
2021/06/27 08:12:36;;;;;;;7.83;5.60;;;35.80;61.80;;;;;;5029524;28;20725;-51
2021/06/27 08:15:04;;;;;;;9.20;5.90;;;36.00;63.50;;;;;;5029025;28;20379;-51
2021/06/27 08:17:29;;;;;;;7.90;5.75;;;35.90;63.30;;;;;;5029311;28;20462;-51
2021/06/27 08:19:55;;;;;;;8.33;5.87;;;35.90;62.80;;;;;;5028645;28;20809;-51
2021/06/27 08:22:21;;;;;;;7.83;5.73;;;36.40;61.60;;;;;;5029022;28;20407;-51
2021/06/27 08:24:47;;;;;;;8.27;5.90;;;36.70;61.50;;;;;;5028390;28;20754;-50
2021/06/27 08:27:12;;;;;;;7.80;5.70;;;36.80;61.20;;;;;;5030245;28;20387;-51
2021/06/27 08:29:38;;;;;;;8.00;5.20;;;36.50;59.90;;;;;;5035719;28;20513;-51
2021/06/27 08:32:05;;;;;;;8.80;5.80;;;36.60;60.30;;;;;;5035876;28;20848;-51
2021/06/27 08:34:31;;;;;;;7.60;5.20;;;36.20;62.20;;;;;;5035231;28;20485;-51
2021/06/27 08:36:56;;;;;;;8.88;5.60;;;36.80;58.60;;;;;;5034626;28;20470;-50
2021/06/27 08:39:22;;;;;;;7.90;5.93;;;37.50;56.90;;;;;;5035460;28;20387;-51
2021/06/27 08:41:48;;;;;;;8.27;6.40;;;38.20;57.00;;;;;;5035078;28;20744;-51
2021/06/27 08:44:14;;;;;;;8.77;6.10;;;38.20;56.70;;;;;;5035991;28;20382;-51
2021/06/27 08:46:44;;;;;;;7.47;5.40;;;38.30;55.10;;;;;;5035259;28;20375;-53
2021/06/27 08:49:14;;;;;;;7.03;4.83;;;37.80;56.30;;;;;;5034716;28;20421;-51
2021/06/27 08:51:40;;;;;;;7.80;5.38;;;38.20;55.80;;;;;;5035276;28;20452;-51
2021/06/27 08:54:11;;;;;;;9.80;7.80;;;38.40;55.40;;;;;;5035302;28;20379;-51
2021/06/27 08:56:40;;;;;;;6.97;4.90;;;39.10;54.90;;;;;;5035240;28;20387;-51
2021/06/27 08:59:06;;;;;;;6.90;4.90;;;38.70;54.90;;;;;;5035053;28;20383;-51
2021/06/27 09:01:32;;;;;;;7.07;4.60;;;38.70;55.00;;;;;;5035195;28;20382;-49
2021/06/27 09:03:58;;;;;;;7.63;4.88;;;38.10;52.30;;;;;;5034925;28;20444;-51
2021/06/27 09:06:30;;;;;;;7.30;4.90;;;37.60;54.30;;;;;;5035626;28;20465;-52
2021/06/27 09:09:18;;;;;;;8.60;4.88;;;38.00;53.50;;;;;;5034914;28;20406;-51
2021/06/27 09:12:00;;;;;;;6.80;4.47;;;38.40;54.20;;;;;;5033853;28;20752;-51
2021/06/27 09:14:33;;;;;;;6.70;4.70;;;38.80;50.90;;;;;;5035410;28;20888;-51
2021/06/27 09:17:16;;;;;;;6.90;4.60;;;39.50;49.10;;;;;;5034792;28;20632;-51
2021/06/27 09:19:52;;;;;;;6.68;4.30;;;40.00;49.70;;;;;;5034042;28;20441;-51
2021/06/27 09:22:20;;;;;;;10.95;9.85;;;39.40;49.20;;;;;;5035169;28;20504;-51
2021/06/27 09:24:47;;;;;;;19.75;18.15;;;37.90;50.10;;;;;;5034457;28;20441;-51
2021/06/27 09:27:24;;;;;;;14.80;13.55;;;37.80;52.40;;;;;;5035510;28;20425;-51
2021/06/27 09:29:51;;;;;;;14.17;12.77;;;38.40;51.20;;;;;;5034064;28;20383;-51
2021/06/27 09:32:19;;;;;;;8.35;5.40;;;39.20;49.50;;;;;;5035148;28;20429;-51
2021/06/27 09:34:45;;;;;;;7.43;4.10;;;39.60;49.60;;;;;;5034382;28;20884;-52
2021/06/27 09:37:13;;;;;;;6.60;4.00;;;40.10;47.30;;;;;;5035268;28;20395;-50
2021/06/27 09:40:00;;;;;;;6.15;3.83;;;40.10;45.70;;;;;;5032218;28;20798;-51
2021/06/27 09:42:29;;;;;;;6.82;4.30;;;40.10;46.10;;;;;;5031675;28;20504;-53
2021/06/27 09:45:03;;;;;;;6.60;4.20;;;39.00;46.90;;;;;;5031215;28;20383;-50
2021/06/27 09:47:29;;;;;;;7.78;4.90;;;38.40;47.00;;;;;;5031679;28;20931;-51
2021/06/27 09:49:55;;;;;;;7.20;5.13;;;38.30;47.00;;;;;;5031615;28;20502;-51
2021/06/27 09:52:39;;;;;;;6.53;4.00;;;38.40;47.30;;;;;;5032060;28;20401;-51
2021/06/27 09:55:13;;;;;;;6.73;4.17;;;38.60;47.00;;;;;;5031819;28;20380;-52
2021/06/27 09:57:40;;;;;;;9.70;4.85;;;38.50;48.30;;;;;;5031493;28;20391;-51
2021/06/27 10:00:25;;;;;;;8.40;5.57;;;38.40;47.80;;;;;;5031417;28;20399;-51
2021/06/27 10:03:01;;;;;;;8.85;5.10;;;38.10;47.50;;;;;;5029734;28;20509;-50
2021/06/27 10:05:27;;;;;;;6.40;4.30;;;38.50;47.80;;;;;;5031333;28;20419;-50
2021/06/27 10:07:54;;;;;;;6.20;4.00;;;38.50;47.20;;;;;;5030707;28;20912;-51
2021/06/27 10:10:20;;;;;;;6.90;4.30;;;38.60;47.50;;;;;;5031647;28;20497;-50
2021/06/27 10:12:46;;;;;;;6.67;4.00;;;37.60;47.60;;;;;;5030433;28;20424;-52
2021/06/27 10:15:15;;;;;;;7.93;6.70;;;37.10;49.00;;;;;;5031874;28;20379;-51
2021/06/27 10:17:42;;;;;;;7.40;5.10;;;36.90;49.20;;;;;;5031127;28;20869;-52
2021/06/27 10:20:12;;;;;;;7.90;5.85;;;36.40;49.00;;;;;;5031681;28;20864;-52
2021/06/27 10:22:39;;;;;;;12.37;11.27;;;35.80;50.70;;;;;;5031228;28;20954;-51
2021/06/27 10:25:09;;;;;;;8.70;7.90;;;35.30;48.90;;;;;;5031047;28;20415;-50
2021/06/27 10:27:35;;;;;;;7.60;6.90;;;34.70;52.00;;;;;;5031087;28;20892;-51
2021/06/27 10:30:03;;;;;;;8.13;7.33;;;34.90;51.30;;;;;;5030214;28;20379;-51
2021/06/27 10:32:29;;;;;;;8.40;7.60;;;35.10;51.10;;;;;;5030875;28;20390;-51
2021/06/27 10:34:56;;;;;;;8.25;7.45;;;34.70;52.00;;;;;;5030321;28;20395;-51
2021/06/27 10:37:30;;;;;;;8.43;7.32;;;34.30;52.30;;;;;;5031099;28;20390;-51
2021/06/27 10:40:02;;;;;;;9.73;8.40;;;33.50;52.10;;;;;;5029861;28;20386;-50
2021/06/27 10:42:49;;;;;;;7.18;4.20;;;32.80;52.60;;;;;;5030780;28;20411;-50
2021/06/27 10:45:22;;;;;;;7.10;3.90;;;32.50;54.60;;;;;;5030762;28;20387;-50
2021/06/27 10:47:49;;;;;;;6.78;3.03;;;32.40;54.60;;;;;;5030388;28;20379;-50
2021/06/27 10:50:16;;;;;;;6.70;3.50;;;32.20;55.30;;;;;;5030626;28;20425;-50
2021/06/27 10:53:01;;;;;;;7.00;4.73;;;32.30;54.60;;;;;;5029881;28;20381;-51
2021/06/27 10:55:28;;;;;;;6.25;3.58;;;32.90;55.40;;;;;;5030744;28;20379;-50
2021/06/27 10:58:07;;;;;;;5.88;3.10;;;32.90;53.10;;;;;;5030314;28;20387;-50
2021/06/27 11:00:57;;;;;;;6.10;3.40;;;33.30;54.80;;;;;;5030899;28;20387;-50
2021/06/27 11:03:43;;;;;;;7.75;3.58;;;33.70;54.30;;;;;;5030875;28;20434;-50
2021/06/27 11:06:18;;;;;;;6.70;3.30;;;34.00;53.10;;;;;;5030287;28;20450;-50
2021/06/27 11:08:47;;;;;;;6.65;3.40;;;33.80;51.10;;;;;;5030234;28;20382;-50
2021/06/27 11:11:16;;;;;;;6.03;3.20;;;33.40;51.80;;;;;;5030271;28;20463;-50
2021/06/27 11:13:44;;;;;;;6.32;3.55;;;33.00;53.00;;;;;;5029661;28;20391;-53
2021/06/27 11:16:19;;;;;;;6.72;3.10;;;32.60;54.80;;;;;;5030754;28;20375;-50
2021/06/27 11:18:50;;;;;;;6.40;3.30;;;32.40;55.20;;;;;;5029935;28;20406;-50
2021/06/27 11:21:32;;;;;;;7.00;3.60;;;32.60;54.10;;;;;;5030179;28;20880;-51
2021/06/27 11:24:00;;;;;;;6.50;3.40;;;32.50;53.60;;;;;;5029497;28;20472;-51
2021/06/27 11:26:40;;;;;;;6.38;3.40;;;32.00;54.60;;;;;;5028371;28;20383;-50
2021/06/27 11:29:21;;;;;;;5.63;3.40;;;32.10;54.60;;;;;;5029257;28;20387;-52
2021/06/27 11:31:54;;;;;;;6.30;3.40;;;32.10;55.50;;;;;;5028370;28;20880;-55
2021/06/27 11:34:20;;;;;;;8.82;4.15;;;32.30;54.50;;;;;;5029976;28;20860;-51
2021/06/27 11:36:48;;;;;;;5.97;3.13;;;32.30;54.70;;;;;;5028411;28;20419;-52
2021/06/27 11:39:45;;;;;;;6.30;3.33;;;32.30;54.20;;;;;;5027336;28;20411;-52
2021/06/27 11:42:29;;;;;;;8.95;8.05;;;32.00;55.70;;;;;;5026468;28;20996;-52
2021/06/27 11:45:10;;;;;;;7.90;7.03;;;31.90;53.00;;;;;;5025328;28;20391;-52
2021/06/27 11:47:39;;;;;;;9.68;8.88;;;31.80;54.60;;;;;;5025129;28;20490;-52
2021/06/27 11:50:24;;;;;;;9.20;8.20;;;31.80;55.30;;;;;;5028136;28;20387;-53
2021/06/27 11:52:51;;;;;;;6.70;4.80;;;31.60;55.00;;;;;;5025420;28;20406;-53
2021/06/27 11:55:16;;;;;;;6.95;3.42;;;31.10;55.60;;;;;;5028892;28;20756;-53
2021/06/27 11:57:43;;;;;;;6.20;3.30;;;31.20;55.80;;;;;;5028485;28;20462;-54
2021/06/27 12:00:11;;;;;;;5.90;3.20;;;31.30;57.00;;;;;;5027806;28;20379;-53
2021/06/27 12:02:37;;;;;;;6.38;3.42;;;31.30;56.60;;;;;;5027875;28;20415;-52
2021/06/27 12:05:08;;;;;;;5.65;3.25;;;31.30;56.10;;;;;;5028023;28;20646;-52
2021/06/27 12:07:42;;;;;;;5.82;3.20;;;31.50;55.40;;;;;;5025486;28;20460;-52
2021/06/27 12:10:20;;;;;;;6.43;3.30;;;31.60;55.90;;;;;;5030753;28;20743;-52
2021/06/27 12:12:56;;;;;;;6.50;2.90;;;31.50;54.30;;;;;;5032248;28;20427;-56
2021/06/27 12:15:31;;;;;;;7.00;3.10;;;31.30;55.00;;;;;;5030832;28;20399;-51
2021/06/27 12:18:13;;;;;;;7.10;3.47;;;31.20;56.60;;;;;;5035267;28;20398;-51
2021/06/27 12:20:46;;;;;;;5.90;3.10;;;30.50;55.10;;;;;;5042319;28;20842;-51
2021/06/27 12:23:19;;;;;;;6.05;3.20;;;31.70;55.20;;;;;;5028327;28;20438;-52
2021/06/27 12:25:51;;;;;;;5.85;2.90;;;31.80;54.60;;;;;;5026955;28;20407;-55
2021/06/27 12:28:17;;;;;;;6.15;3.03;;;31.80;55.00;;;;;;5009492;28;20404;-51
2021/06/27 12:30:53;;;;;;;5.83;2.93;;;31.80;55.30;;;;;;5009210;28;20381;-52
2021/06/27 12:33:36;;;;;;;6.40;3.20;;;31.60;56.20;;;;;;5009669;28;20443;-52
2021/06/27 12:36:08;;;;;;;6.78;3.15;;;31.70;57.50;;;;;;5008665;28;20415;-52
2021/06/27 12:38:34;;;;;;;6.60;2.90;;;31.70;57.20;;;;;;5009746;28;20928;-51
2021/06/27 12:41:04;;;;;;;5.75;3.10;;;31.90;58.60;;;;;;5008538;28;20878;-52